Time;durP1;ratioP1;P1;durP2;ratioP2;P2;SDS_P1;SDS_P2;PMS_P1;PMS_P2;Temp;Humidity;BMP_temperature;BMP_pressure;BME280_temperature;BME280_humidity;BME280_pressure;Samples;Min_cycle;Max_cycle;Signal;HPM_P1;HPM_P2
2022/06/08 00:01:08;;;;;;;0.35;0.35;;;;;;;11.92;100.00;99406.16;5022527;28;20442;-75
2022/06/08 00:03:42;;;;;;;0.38;0.38;;;;;;;11.93;100.00;99402.41;5000873;28;20124;-75
2022/06/08 00:06:08;;;;;;;0.30;0.30;;;;;;;11.91;100.00;99410.72;5021473;28;20033;-75
2022/06/08 00:08:33;;;;;;;0.30;0.30;;;;;;;11.90;100.00;99410.91;5027360;28;20463;-75
2022/06/08 00:10:59;;;;;;;0.30;0.30;;;;;;;11.85;100.00;99412.38;5006715;28;20048;-75
2022/06/08 00:13:25;;;;;;;0.30;0.30;;;;;;;11.83;100.00;99414.47;5005398;28;20025;-75
2022/06/08 00:15:53;;;;;;;0.22;0.22;;;;;;;11.82;100.00;99411.97;5004779;28;20044;-75
2022/06/08 00:18:19;;;;;;;1.85;0.47;;;;;;;11.75;100.00;99400.41;5020973;28;20034;-75
2022/06/08 00:20:45;;;;;;;0.50;0.50;;;;;;;11.80;100.00;99414.06;5025760;28;20032;-76
2022/06/08 00:23:10;;;;;;;0.30;0.30;;;;;;;11.83;100.00;99419.84;5017373;28;20026;-75
2022/06/08 00:25:36;;;;;;;0.30;0.30;;;;;;;11.80;100.00;99420.28;5002470;28;20036;-76
2022/06/08 00:28:02;;;;;;;1.40;1.00;;;;;;;11.82;100.00;99428.94;5024407;28;20419;-74
2022/06/08 00:30:28;;;;;;;0.65;0.65;;;;;;;11.78;100.00;99422.38;5005384;28;20102;-75
2022/06/08 00:32:53;;;;;;;1.55;0.80;;;;;;;11.77;100.00;99420.69;5007870;28;20251;-75
2022/06/08 00:35:19;;;;;;;0.40;0.40;;;;;;;11.74;100.00;99421.13;5018406;28;20030;-76
2022/06/08 00:37:46;;;;;;;1.15;0.70;;;;;;;11.73;100.00;99429.44;5020769;28;20498;-75
2022/06/08 00:40:13;;;;;;;0.30;0.30;;;;;;;11.73;100.00;99429.44;4994125;28;20445;-75
2022/06/08 00:42:40;;;;;;;0.30;0.30;;;;;;;11.68;100.00;99437.34;5020914;28;20507;-75
2022/06/08 00:45:08;;;;;;;0.30;0.30;;;;;;;11.68;100.00;99431.97;5026536;28;20438;-76
2022/06/08 00:47:39;;;;;;;0.55;0.55;;;;;;;11.64;100.00;99434.22;5018259;28;20471;-75
2022/06/08 00:50:07;;;;;;;0.32;0.32;;;;;;;11.41;100.00;99415.94;5017681;28;20033;-74
2022/06/08 00:52:34;;;;;;;0.70;0.70;;;;;;;11.44;100.00;99434.34;5004126;28;20033;-75
2022/06/08 00:55:08;;;;;;;0.30;0.30;;;;;;;11.41;100.00;99419.44;5011612;28;20141;-75
2022/06/08 00:58:05;;;;;;;0.30;0.30;;;;;;;11.55;100.00;99438.22;4993830;28;20538;-75
2022/06/08 01:00:34;;;;;;;0.30;0.30;;;;;;;11.50;100.00;99427.28;5005139;28;20483;-75
2022/06/08 01:03:00;;;;;;;0.50;0.50;;;;;;;11.57;100.00;99444.22;5033246;28;20041;-75
2022/06/08 01:05:28;;;;;;;0.30;0.30;;;;;;;11.55;100.00;99438.22;5012980;28;20395;-74
2022/06/08 01:08:04;;;;;;;0.40;0.40;;;;;;;11.49;100.00;99441.78;5028425;28;20061;-75
2022/06/08 01:10:43;;;;;;;0.30;0.30;;;;;;;11.43;100.00;99446.97;5011714;28;20503;-75
2022/06/08 01:13:08;;;;;;;0.30;0.30;;;;;;;11.42;100.00;99450.69;5013405;28;20454;-76
2022/06/08 01:15:36;;;;;;;0.30;0.30;;;;;;;11.34;100.00;99433.97;5025230;28;20067;-76
2022/06/08 01:18:10;;;;;;;0.30;0.30;;;;;;;11.35;100.00;99435.59;4995265;28;20403;-75
2022/06/08 01:20:36;;;;;;;0.30;0.30;;;;;;;11.35;100.00;99441.84;5026842;28;20087;-74
2022/06/08 01:23:02;;;;;;;0.30;0.30;;;;;;;11.23;100.00;99433.59;5027429;28;20038;-74
2022/06/08 01:25:33;;;;;;;0.40;0.40;;;;;;;11.16;100.00;99456.16;5009717;28;20112;-74
2022/06/08 01:28:41;;;;;;;0.60;0.50;;;;;;;11.06;100.00;99451.25;5022151;28;20033;-75
2022/06/08 01:31:16;;;;;;;0.40;0.40;;;;;;;11.13;100.00;99452.03;5025224;28;20135;-75
2022/06/08 01:33:49;;;;;;;0.30;0.30;;;;;;;11.15;100.00;99449.16;5041684;28;20124;-75
2022/06/08 01:36:29;;;;;;;0.40;0.40;;;;;;;11.23;100.00;99451.59;4995869;28;20044;-75
2022/06/08 01:39:04;;;;;;;0.30;0.30;;;;;;;11.25;100.00;99454.91;5030352;28;20041;-74
2022/06/08 01:41:41;;;;;;;0.30;0.30;;;;;;;11.29;100.00;99458.00;5028970;28;20387;-74
2022/06/08 01:44:19;;;;;;;0.55;0.43;;;;;;;11.28;100.00;99453.66;5033076;28;20510;-75
2022/06/08 01:46:54;;;;;;;0.43;0.43;;;;;;;11.25;100.00;99452.22;5037397;28;20037;-75
2022/06/08 01:49:29;;;;;;;0.40;0.40;;;;;;;11.26;100.00;99458.44;5010703;28;20660;-75
2022/06/08 01:52:18;;;;;;;0.50;0.50;;;;;;;11.25;100.00;99451.41;5029757;28;20029;-75
2022/06/08 01:55:05;;;;;;;0.40;0.40;;;;;;;11.24;100.00;99453.25;5008027;28;20029;-74
2022/06/08 01:57:37;;;;;;;1.08;0.63;;;;;;;11.25;100.00;99456.78;5030375;28;20502;-74
2022/06/08 02:00:24;;;;;;;0.88;0.82;;;;;;;11.29;100.00;99449.94;5012344;28;20038;-75
2022/06/08 02:03:01;;;;;;;0.40;0.40;;;;;;;11.36;100.00;99464.19;5025961;28;20044;-75
2022/06/08 02:05:54;;;;;;;0.68;0.68;;;;;;;11.30;100.00;99457.81;5031134;28;20037;-75
2022/06/08 02:08:22;;;;;;;;;;;;;;;11.21;100.00;99464.44;5029525;28;20065;-75
2022/06/08 02:10:57;;;;;;;0.30;0.30;;;;;;;11.12;100.00;99454.97;5018677;28;19943;-75
2022/06/08 02:13:41;;;;;;;0.95;0.77;;;;;;;11.07;100.00;99457.44;5005740;28;20471;-75
2022/06/08 02:16:11;;;;;;;0.98;0.90;;;;;;;11.03;100.00;99472.34;4993346;28;20059;-75
2022/06/08 02:18:51;;;;;;;0.82;0.82;;;;;;;11.00;100.00;99454.75;5018976;28;20034;-74
2022/06/08 02:21:24;;;;;;;4.13;1.20;;;;;;;11.01;100.00;99464.50;5022113;28;20542;-75
2022/06/08 02:23:52;;;;;;;0.40;0.40;;;;;;;11.01;100.00;99464.50;5025675;28;20406;-75
2022/06/08 02:26:29;;;;;;;0.50;0.50;;;;;;;11.00;100.00;99458.28;4993450;28;20553;-75
2022/06/08 02:29:04;;;;;;;0.30;0.30;;;;;;;10.91;100.00;99454.16;5021475;28;20034;-75
2022/06/08 02:31:37;;;;;;;0.30;0.30;;;;;;;10.93;100.00;99444.03;4991246;28;20256;-76
2022/06/08 02:34:31;;;;;;;0.30;0.30;;;;;;;10.96;100.00;99457.06;5012452;28;20033;-75
2022/06/08 02:37:11;;;;;;;0.30;0.30;;;;;;;10.97;100.00;99464.06;5016571;28;21103;-76
2022/06/08 02:39:41;;;;;;;0.30;0.30;;;;;;;10.95;100.00;99459.94;5026224;28;20029;-74
2022/06/08 02:42:28;;;;;;;0.40;0.40;;;;;;;10.94;100.00;99467.19;4991190;28;20030;-75
2022/06/08 02:44:57;;;;;;;0.30;0.30;;;;;;;10.91;100.00;99459.53;5005898;28;20033;-75
2022/06/08 02:47:31;;;;;;;0.40;0.40;;;;;;;10.88;100.00;99451.91;5008701;28;20132;-75
2022/06/08 02:50:05;;;;;;;0.30;0.30;;;;;;;10.85;100.00;99456.84;5020843;28;20438;-76
2022/06/08 02:52:36;;;;;;;0.57;0.55;;;;;;;10.71;100.00;99448.00;5004751;28;20550;-76
2022/06/08 02:55:22;;;;;;;0.30;0.30;;;;;;;10.61;100.00;99451.13;4995127;28;20041;-75
2022/06/08 02:57:55;;;;;;;0.30;0.30;;;;;;;10.65;100.00;99456.91;5022661;28;20033;-76
2022/06/08 03:00:34;;;;;;;;;;;;;;;10.69;100.00;99455.44;5024543;28;20364;-75
2022/06/08 03:03:28;;;;;;;0.40;0.40;;;;;;;10.49;100.00;99442.03;5004801;28;21854;-75
2022/06/08 03:05:58;;;;;;;0.30;0.30;;;;;;;10.48;100.00;99449.25;5005738;28;20164;-75
2022/06/08 03:08:30;;;;;;;0.30;0.30;;;;;;;10.47;100.00;99452.97;5022374;28;20033;-75
2022/06/08 03:10:58;;;;;;;0.30;0.30;;;;;;;10.49;100.00;99445.53;5021512;28;20041;-76
2022/06/08 03:13:28;;;;;;;0.30;0.30;;;;;;;10.55;100.00;99454.63;5021141;28;20406;-76
2022/06/08 03:15:57;;;;;;;0.30;0.30;;;;;;;10.55;100.00;99454.63;5025812;28;20037;-75
2022/06/08 03:18:23;;;;;;;0.30;0.30;;;;;;;10.47;100.00;99439.53;5003208;28;20375;-75
2022/06/08 03:20:49;;;;;;;0.30;0.30;;;;;;;10.58;100.00;99446.13;5026550;28;20037;-75
2022/06/08 03:23:14;;;;;;;0.30;0.30;;;;;;;10.60;100.00;99449.44;4999999;28;20040;-75
2022/06/08 03:25:40;;;;;;;0.30;0.30;;;;;;;10.64;100.00;99448.00;5021035;28;20463;-76
2022/06/08 03:28:06;;;;;;;0.30;0.30;;;;;;;10.76;100.00;99456.25;5038172;28;20033;-75
2022/06/08 03:30:32;;;;;;;0.38;0.38;;;;;;;10.82;100.00;99447.34;5017179;28;20475;-75
2022/06/08 03:32:58;;;;;;;0.30;0.30;;;;;;;10.86;100.00;99450.47;5027330;28;20030;-75
2022/06/08 03:35:23;;;;;;;0.35;0.35;;;;;;;10.92;100.00;99460.38;5013859;28;20728;-75
2022/06/08 03:37:49;;;;;;;0.30;0.30;;;;;;;10.96;100.00;99462.44;5007110;28;20041;-76
2022/06/08 03:40:16;;;;;;;0.30;0.30;;;;;;;10.82;100.00;99425.84;5008545;28;20124;-75
2022/06/08 03:42:42;;;;;;;0.40;0.40;;;;;;;11.06;100.00;99463.84;5008695;28;20144;-76
2022/06/08 03:45:09;;;;;;;0.38;0.38;;;;;;;11.09;100.00;99458.91;4995016;28;20176;-75
2022/06/08 03:47:42;;;;;;;0.30;0.30;;;;;;;11.16;100.00;99467.75;5025762;28;20033;-75
2022/06/08 03:50:13;;;;;;;0.35;0.35;;;;;;;11.21;100.00;99465.25;5007200;28;20044;-75
2022/06/08 03:52:43;;;;;;;0.30;0.30;;;;;;;11.22;100.00;99460.72;5022012;28;20102;-75
2022/06/08 03:55:10;;;;;;;0.30;0.30;;;;;;;11.22;100.00;99458.03;4988812;28;20029;-75
2022/06/08 03:57:36;;;;;;;0.30;0.30;;;;;;;11.17;100.00;99468.59;5055326;28;20124;-75
2022/06/08 04:00:05;;;;;;;0.30;0.30;;;;;;;11.15;100.00;99467.97;5007858;28;20102;-75
2022/06/08 04:02:30;;;;;;;0.90;0.47;;;;;;;11.17;100.00;99463.22;5024115;28;20033;-75
2022/06/08 04:04:56;;;;;;;0.40;0.40;;;;;;;11.17;100.00;99468.59;4988951;28;20038;-76
2022/06/08 04:07:22;;;;;;;1.08;0.65;;;;;;;11.03;100.00;99470.47;5009466;28;20060;-75
2022/06/08 04:09:47;;;;;;;0.35;0.35;;;;;;;10.92;100.00;99461.19;5009148;28;20038;-75
2022/06/08 04:12:13;;;;;;;0.30;0.30;;;;;;;10.97;100.00;99464.06;5023105;28;20052;-75
2022/06/08 04:14:39;;;;;;;0.30;0.30;;;;;;;11.00;100.00;99471.72;5022279;28;20029;-75
2022/06/08 04:17:06;;;;;;;0.30;0.30;;;;;;;11.07;100.00;99460.13;5018534;28;20116;-76
2022/06/08 04:19:31;;;;;;;0.40;0.40;;;;;;;11.17;100.00;99471.28;5015215;28;20037;-75
2022/06/08 04:21:57;;;;;;;1.55;0.40;;;;;;;11.31;100.00;99480.16;4986032;28;20041;-75
2022/06/08 04:24:23;;;;;;;0.40;0.40;;;;;;;11.36;100.00;99480.34;5016631;28;20029;-76
2022/06/08 04:26:50;;;;;;;0.30;0.30;;;;;;;11.41;100.00;99477.84;5018264;28;20036;-76
2022/06/08 04:29:16;;;;;;;0.40;0.40;;;;;;;11.43;100.00;99487.34;5022312;28;20068;-76
2022/06/08 04:31:46;;;;;;;0.55;0.47;;;;;;;11.44;100.00;99486.31;5020366;28;20038;-75
2022/06/08 04:34:13;;;;;;;0.40;0.40;;;;;;;11.46;100.00;99499.56;5007446;28;20123;-75
2022/06/08 04:36:40;;;;;;;0.60;0.60;;;;;;;11.47;100.00;99492.31;5000262;28;20537;-76
2022/06/08 04:39:07;;;;;;;0.55;0.55;;;;;;;11.54;100.00;99501.19;4981370;28;20146;-76
2022/06/08 04:41:34;;;;;;;0.43;0.43;;;;;;;11.56;100.00;99499.09;5019663;28;20060;-76
2022/06/08 04:44:00;;;;;;;0.60;0.60;;;;;;;11.54;100.00;99499.31;5009643;28;20029;-76
2022/06/08 04:46:26;;;;;;;0.43;0.43;;;;;;;11.61;100.00;99508.19;5025092;28;20033;-75
2022/06/08 04:48:52;;;;;;;0.43;0.43;;;;;;;11.64;100.00;99502.41;4990410;28;20044;-75
2022/06/08 04:51:20;;;;;;;0.63;0.50;;;;;;;11.55;100.00;99503.66;4982783;28;20436;-75
2022/06/08 04:53:47;;;;;;;0.70;0.70;;;;;;;11.51;100.00;99505.13;5016276;28;20040;-75
2022/06/08 04:56:13;;;;;;;0.40;0.40;;;;;;;11.54;100.00;99509.28;5020541;28;20124;-74
2022/06/08 04:58:39;;;;;;;0.65;0.60;;;;;;;11.61;100.00;99515.44;5015669;28;20037;-75
2022/06/08 05:01:05;;;;;;;0.30;0.30;;;;;;;11.60;100.00;99503.84;5004667;28;20040;-76
2022/06/08 05:03:31;;;;;;;0.50;0.50;;;;;;;11.76;100.00;99518.69;5021246;28;20398;-77
2022/06/08 05:05:57;;;;;;;7.32;1.10;;;;;;;11.83;100.00;99516.00;5020863;28;20026;-76
2022/06/08 05:08:24;;;;;;;3.30;1.75;;;;;;;11.91;100.00;99509.53;5008189;28;20025;-74
2022/06/08 05:10:50;;;;;;;0.32;0.32;;;;;;;11.95;100.00;99518.84;5027240;28;20045;-75
2022/06/08 05:13:16;;;;;;;1.13;0.98;;;;;;;11.88;100.00;99514.31;5018755;28;20030;-75
2022/06/08 05:15:43;;;;;;;0.95;0.95;;;;;;;11.94;100.00;99517.22;5019868;28;20304;-75
2022/06/08 05:18:10;;;;;;;0.50;0.50;;;;;;;11.94;100.00;99512.63;4994984;28;20037;-75
2022/06/08 05:20:38;;;;;;;6.15;0.90;;;;;;;11.87;100.00;99522.63;4985347;28;20060;-75
2022/06/08 05:23:05;;;;;;;0.77;0.60;;;;;;;11.86;100.00;99512.88;4992073;28;20474;-75
2022/06/08 05:25:34;;;;;;;4.18;0.93;;;;;;;12.01;100.00;99526.06;5006022;28;20060;-76
2022/06/08 05:28:00;;;;;;;15.15;1.60;;;;;;;12.14;100.00;99536.75;4986356;28;20045;-75
2022/06/08 05:30:27;;;;;;;6.38;1.60;;;;;;;12.31;100.00;99534.41;5024896;28;20483;-75
2022/06/08 05:32:53;;;;;;;3.80;1.52;;;;;;;12.41;100.00;99544.69;4984530;28;20156;-75
2022/06/08 05:35:20;;;;;;;10.85;2.35;;;;;;;12.52;100.00;99539.44;5020772;28;20448;-75
2022/06/08 05:37:46;;;;;;;9.23;2.25;;;;;;;12.78;100.00;99529.50;5024524;28;20040;-75
2022/06/08 05:40:12;;;;;;;14.80;2.70;;;;;;;12.74;100.00;99521.00;5005325;28;20037;-77
2022/06/08 05:42:38;;;;;;;5.18;1.95;;;;;;;12.94;100.00;99538.91;4997607;28;20041;-76
2022/06/08 05:45:05;;;;;;;2.08;1.30;;;;;;;12.97;100.00;99541.97;5022535;28;20028;-76
2022/06/08 05:47:31;;;;;;;3.63;1.17;;;;;;;12.83;100.00;99537.72;5018252;28;20060;-75
2022/06/08 05:49:57;;;;;;;9.20;1.85;;;;;;;12.74;100.00;99541.75;5029243;28;20493;-77
2022/06/08 05:52:23;;;;;;;8.13;1.98;;;;;;;12.77;100.00;99552.09;5025917;28;20508;-75
2022/06/08 05:54:48;;;;;;;6.72;1.75;;;;;;;12.79;100.00;99544.63;4999804;28;20077;-75
2022/06/08 05:57:14;;;;;;;7.18;2.00;;;;;;;12.84;100.00;99552.88;4991530;28;20037;-75
2022/06/08 05:59:40;;;;;;;8.48;1.80;;;;;;;12.91;100.00;99547.44;5013585;28;20560;-75
2022/06/08 06:02:07;;;;;;;6.05;1.52;;;;;;;12.91;100.00;99556.38;4996207;28;20041;-75
2022/06/08 06:04:33;;;;;;;11.73;2.40;;;;;;;12.93;100.00;99545.34;5057691;28;20087;-75
2022/06/08 06:06:59;;;;;;;7.43;1.85;;;;;;;13.04;100.00;99560.81;5023853;28;20041;-75
2022/06/08 06:09:26;;;;;;;7.20;1.83;;;;;;;13.07;100.00;99560.38;5027917;28;20188;-75
2022/06/08 06:11:52;;;;;;;11.27;2.80;;;;;;;13.11;100.00;99564.28;5012530;28;20096;-75
2022/06/08 06:14:18;;;;;;;8.60;2.72;;;;;;;13.15;100.00;99568.19;5023604;28;20033;-75
2022/06/08 06:16:44;;;;;;;10.32;2.35;;;;;;;13.16;100.00;99564.44;5015055;28;20042;-75
2022/06/08 06:19:09;;;;;;;9.68;3.53;;;;;;;13.21;100.00;99566.47;5020390;28;20041;-75
2022/06/08 06:21:35;;;;;;;13.75;2.22;;;;;;;13.07;100.00;99555.00;5024812;28;20511;-75
2022/06/08 06:24:02;;;;;;;8.85;3.42;;;;;;;12.98;100.00;99562.50;5003177;28;20120;-75
2022/06/08 06:26:29;;;;;;;10.52;2.42;;;;;;;12.96;100.00;99561.06;5019368;28;20511;-76
2022/06/08 06:28:56;;;;;;;10.30;2.28;;;;;;;13.00;100.00;99566.88;4981472;28;20056;-76
2022/06/08 06:31:44;;;;;;;3.75;1.60;;;;;;;12.83;100.00;99574.69;5033917;28;20033;-76
2022/06/08 06:34:11;;;;;;;8.30;2.38;;;;;;;12.80;100.00;99580.50;5001982;28;20078;-76
2022/06/08 06:36:37;;;;;;;1.73;1.42;;;;;;;12.85;100.00;99572.59;5014299;28;20040;-75
2022/06/08 06:39:03;;;;;;;4.95;1.80;;;;;;;12.96;100.00;99580.78;5017881;28;20129;-75
2022/06/08 06:41:29;;;;;;;10.07;2.33;;;;;;;13.40;100.00;99581.69;4994275;28;20045;-74
2022/06/08 06:43:55;;;;;;;2.30;1.25;;;;;;;13.71;100.00;99582.63;5006946;28;20033;-75
2022/06/08 06:46:21;;;;;;;10.57;2.28;;;;;;;13.93;100.00;99582.97;4995897;28;20449;-75
2022/06/08 06:48:47;;;;;;;8.32;2.75;;;;;;;14.70;100.00;99580.47;4988139;28;20041;-75
2022/06/08 06:51:12;;;;;;;5.93;2.05;;;;;;;16.40;100.00;99582.34;5006517;28;20391;-75
2022/06/08 06:53:38;;;;;;;9.93;2.60;;;;;;;16.03;100.00;99574.59;5028847;28;20034;-75
2022/06/08 06:56:04;;;;;;;9.73;2.28;;;;;;;15.63;100.00;99578.06;4993893;28;20108;-76
2022/06/08 06:58:30;;;;;;;6.15;1.83;;;;;;;15.45;100.00;99581.72;5024225;28;20025;-76
2022/06/08 07:00:56;;;;;;;7.22;2.20;;;;;;;14.85;100.00;99584.66;4995234;28;20045;-75
2022/06/08 07:03:22;;;;;;;9.00;1.90;;;;;;;15.03;100.00;99581.00;5008225;28;20047;-76
2022/06/08 07:05:48;;;;;;;12.52;1.70;;;;;;;15.31;100.00;99593.88;5004727;28;20493;-75
2022/06/08 07:08:14;;;;;;;6.93;2.15;;;;;;;15.18;100.00;99598.44;5040088;28;20495;-75
2022/06/08 07:10:40;;;;;;;4.13;1.55;;;;;;;15.53;100.00;99588.66;5011317;28;20084;-75
2022/06/08 07:13:05;;;;;;;7.20;1.92;;;;;;;16.68;100.00;99593.19;4985410;28;20037;-75
2022/06/08 07:15:31;;;;;;;7.63;2.47;;;;;;;18.22;94.59;99600.91;5017054;28;20103;-76
2022/06/08 07:17:57;;;;;;;9.30;1.90;;;;;;;20.06;84.36;99616.09;4986497;28;20036;-74
2022/06/08 07:20:23;;;;;;;4.63;1.58;;;;;;;19.03;88.14;99609.13;4984676;28;20041;-75
2022/06/08 07:22:50;;;;;;;6.85;1.58;;;;;;;19.94;82.85;99607.28;5016947;28;20029;-74
2022/06/08 07:25:26;;;;;;;7.43;1.77;;;;;;;19.33;83.61;99613.97;5026608;28;20032;-76
2022/06/08 07:27:51;;;;;;;5.40;1.95;;;;;;;19.18;84.54;99611.13;5023856;28;20069;-76
2022/06/08 07:30:17;;;;;;;8.30;1.63;;;;;;;18.78;84.93;99625.22;4993053;28;20431;-73
2022/06/08 07:32:46;;;;;;;10.27;1.90;;;;;;;17.94;88.93;99616.38;5004864;28;20177;-75
2022/06/08 07:35:12;;;;;;;5.35;1.65;;;;;;;17.91;89.42;99621.47;5024847;28;20462;-75
2022/06/08 07:37:39;;;;;;;7.03;1.77;;;;;;;17.31;91.86;99617.63;5007387;28;20502;-76
2022/06/08 07:40:15;;;;;;;16.13;2.78;;;;;;;16.31;96.17;99610.94;5007930;28;20388;-77
2022/06/08 07:43:22;;;;;;;11.15;2.30;;;;;;;15.21;100.00;99628.81;5017443;28;20586;-77
2022/06/08 07:45:48;;;;;;;8.65;1.75;;;;;;;14.32;100.00;99636.78;4982080;28;20045;-74
2022/06/08 07:50:58;;;;;;;2.53;1.25;;;;;;;13.78;100.00;99645.47;5010395;28;20044;-75
2022/06/08 07:53:26;;;;;;;9.25;1.83;;;;;;;13.73;100.00;99658.81;5021588;28;20052;-74
2022/06/08 07:55:52;;;;;;;7.80;1.98;;;;;;;15.73;100.00;99654.19;5008459;28;20033;-74
2022/06/08 07:58:20;;;;;;;4.85;1.90;;;;;;;18.64;85.12;99650.13;5003772;28;20045;-73
2022/06/08 08:00:49;;;;;;;7.97;2.05;;;;;;;20.41;77.34;99661.78;5009099;28;20060;-73
2022/06/08 08:06:41;;;;;;;7.22;2.00;;;;;;;22.78;66.84;99653.13;4999706;28;20550;-74
2022/06/08 08:09:22;;;;;;;5.85;1.55;;;;;;;23.84;62.79;99662.69;4959460;28;20042;-74
2022/06/08 08:11:53;;;;;;;7.72;1.40;;;;;;;22.39;66.88;99653.06;5008216;28;20040;-74
2022/06/08 08:14:21;;;;;;;6.80;3.25;;;;;;;19.44;77.13;99653.03;5029251;28;20142;-74
2022/06/08 08:16:48;;;;;;;6.03;1.85;;;;;;;17.00;88.32;99662.47;5031720;28;20088;-73
2022/06/08 08:19:17;;;;;;;4.07;0.80;;;;;;;15.20;97.41;99684.06;4991757;28;20043;-74
2022/06/08 08:21:47;;;;;;;0.47;0.47;;;;;;;14.21;100.00;99678.91;5018680;28;20072;-74
2022/06/08 08:24:13;;;;;;;0.30;0.30;;;;;;;13.75;100.00;99672.94;5021669;28;20032;-73
2022/06/08 08:26:39;;;;;;;0.40;0.40;;;;;;;13.54;100.00;99674.19;5023467;28;20029;-73
2022/06/08 08:29:05;;;;;;;0.40;0.40;;;;;;;13.93;100.00;99680.25;5002374;28;20026;-75
2022/06/08 08:31:32;;;;;;;1.13;1.13;;;;;;;17.47;94.12;99667.59;5049996;28;20014;-75
2022/06/08 08:33:58;;;;;;;0.63;0.52;;;;;;;19.69;84.92;99665.25;5050497;28;20052;-77
2022/06/08 08:36:24;;;;;;;0.50;0.50;;;;;;;19.41;83.40;99663.66;5006645;28;20075;-74
2022/06/08 08:38:53;;;;;;;0.57;0.57;;;;;;;18.59;87.18;99666.38;4999358;28;20030;-74
2022/06/08 08:44:34;;;;;;;2.60;0.65;;;;;;;18.81;83.39;99665.56;5017102;28;20140;-74
2022/06/08 08:47:32;;;;;;;1.27;0.52;;;;;;;16.70;91.37;99668.94;5023957;28;20383;-74
2022/06/08 08:50:52;;;;;;;2.67;1.02;;;;;;;15.83;96.24;99686.13;5047035;28;20523;-75
2022/06/08 08:53:30;;;;;;;0.63;0.50;;;;;;;15.70;97.77;99672.81;5039049;28;20049;-74
2022/06/08 08:56:03;;;;;;;0.93;0.85;;;;;;;16.03;95.85;99680.31;5018880;28;20026;-73
2022/06/08 08:58:41;;;;;;;0.50;0.50;;;;;;;17.62;88.55;99686.81;5004139;28;20053;-74
2022/06/08 09:01:30;;;;;;;2.20;1.38;;;;;;;20.41;77.14;99685.56;5020779;28;20932;-76
2022/06/08 09:04:06;;;;;;;0.80;0.80;;;;;;;22.61;69.39;99688.28;5009375;28;20033;-76
2022/06/08 09:06:35;;;;;;;0.60;0.60;;;;;;;23.46;63.70;99666.03;5011678;28;20048;-75
2022/06/08 09:09:06;;;;;;;3.83;0.90;;;;;;;21.52;69.92;99684.16;5012856;28;20044;-74
2022/06/08 09:11:36;;;;;;;2.40;0.82;;;;;;;19.32;77.94;99683.22;5024467;28;20033;-75
2022/06/08 09:14:08;;;;;;;2.28;1.10;;;;;;;18.15;83.92;99695.50;5028671;28;20147;-75
2022/06/08 09:16:37;;;;;;;3.90;1.00;;;;;;;16.82;88.08;99705.03;4995507;28;20029;-76
2022/06/08 09:19:21;;;;;;;1.85;0.70;;;;;;;15.93;93.19;99732.47;5028819;28;20286;-77
2022/06/08 09:22:17;;;;;;;0.50;0.50;;;;;;;15.14;98.37;99693.94;5010819;28;20468;-77
2022/06/08 09:24:52;;;;;;;1.48;0.68;;;;;;;14.19;100.00;99700.75;5031659;28;20052;-77
2022/06/08 09:27:27;;;;;;;2.42;0.50;;;;;;;14.02;100.00;99732.13;5014797;28;20396;-77
2022/06/08 09:30:09;;;;;;;1.50;0.73;;;;;;;14.28;100.00;99723.72;5015504;28;20076;-77
2022/06/08 09:32:41;;;;;;;0.80;0.80;;;;;;;15.87;99.10;99736.09;5008238;28;20375;-76
2022/06/08 09:35:32;;;;;;;1.88;1.08;;;;;;;16.82;90.43;99715.06;5028029;28;20091;-76
2022/06/08 09:38:04;;;;;;;1.27;1.10;;;;;;;20.26;77.22;99731.88;5011065;28;20034;-76
2022/06/08 09:40:37;;;;;;;1.50;0.90;;;;;;;22.00;70.96;99702.16;5027865;28;20049;-76
2022/06/08 09:43:27;;;;;;;1.20;1.10;;;;;;;22.77;68.31;99733.66;5029424;28;20037;-77
2022/06/08 09:51:25;;;;;;;1.75;1.10;;;;;;;24.04;62.34;99727.56;4993452;28;20079;-75
2022/06/08 09:52:15;;;;;;;1.43;1.33;;;;;;;21.76;67.44;99723.81;5021043;28;20041;-77
2022/06/08 09:54:49;;;;;;;0.57;0.57;;;;;;;21.39;68.15;99744.88;5003884;28;20475;-74
2022/06/08 09:57:41;;;;;;;1.33;0.60;;;;;;;22.21;64.63;99742.09;4988468;28;20419;-75
2022/06/08 10:00:23;;;;;;;1.17;0.75;;;;;;;20.53;70.64;99745.38;5028238;28;20052;-74
2022/06/08 10:02:58;;;;;;;2.10;1.10;;;;;;;19.91;71.96;99752.41;5027654;28;20055;-77
2022/06/08 10:05:41;;;;;;;0.50;0.50;;;;;;;20.33;69.92;99746.13;5027534;28;20092;-74
2022/06/08 10:08:22;;;;;;;3.05;1.48;;;;;;;20.54;68.98;99731.50;5005575;28;20034;-74
2022/06/08 10:11:37;;;;;;;9.38;2.20;;;;;;;19.25;72.88;99749.91;5010365;28;20117;-74
2022/06/08 10:14:37;;;;;;;4.20;1.75;;;;;;;18.68;75.09;99770.22;4966603;28;20314;-76
2022/06/08 10:17:18;;;;;;;13.00;2.75;;;;;;;20.76;68.00;99775.03;4964439;28;20038;-76
2022/06/08 10:19:50;;;;;;;10.88;2.13;;;;;;;20.61;69.65;99766.75;5022710;28;20044;-76
2022/06/08 10:22:17;;;;;;;8.35;3.25;;;;;;;22.71;62.32;99775.91;5010985;28;20044;-77
2022/06/08 10:24:50;;;;;;;11.05;2.53;;;;;;;23.83;57.83;99771.69;5023049;28;20033;-76
2022/06/08 10:27:23;;;;;;;6.40;1.70;;;;;;;23.92;55.68;99791.94;5010858;28;20046;-77
2022/06/08 10:30:19;;;;;;;10.65;2.50;;;;;;;23.66;57.18;99783.06;5027973;28;20539;-78
2022/06/08 10:33:12;;;;;;;7.35;2.40;;;;;;;20.82;67.12;99782.13;5027790;28;20098;-76
2022/06/08 10:35:44;;;;;;;9.57;2.28;;;;;;;19.57;66.51;99782.66;5044366;28;20030;-76
2022/06/08 10:38:20;;;;;;;10.17;2.10;;;;;;;19.44;70.49;99794.78;5029893;28;20049;-76
2022/06/08 10:41:04;;;;;;;14.65;2.88;;;;;;;20.07;70.26;99792.38;4998879;28;20129;-76
2022/06/08 10:43:34;;;;;;;10.27;2.35;;;;;;;19.38;73.71;99787.66;5029389;28;20132;-76
2022/06/08 10:46:05;;;;;;;8.27;2.72;;;;;;;18.54;73.54;99801.63;5029134;28;20123;-77
2022/06/08 10:48:43;;;;;;;10.02;2.75;;;;;;;19.99;66.78;99815.50;5005887;28;20071;-77
2022/06/08 10:51:12;;;;;;;6.68;2.13;;;;;;;21.05;63.01;99812.84;5027285;28;20037;-76
2022/06/08 10:56:26;;;;;;;6.93;2.05;;;;;;;22.41;57.54;99817.09;5024159;28;20040;-75
2022/06/08 10:59:07;;;;;;;8.38;1.90;;;;;;;20.24;63.07;99810.47;5009809;28;20037;-76
2022/06/08 11:01:55;;;;;;;9.45;2.10;;;;;;;19.47;68.20;99832.44;5027254;28;20418;-76
2022/06/08 11:04:29;;;;;;;8.45;2.17;;;;;;;19.48;67.71;99833.28;5009684;28;20033;-77
2022/06/08 11:07:22;;;;;;;6.28;1.60;;;;;;;19.52;65.52;99839.88;5014491;28;20376;-76
2022/06/08 11:09:57;;;;;;;14.57;2.80;;;;;;;20.73;56.00;99829.38;5027689;28;20037;-77
2022/06/08 11:12:46;;;;;;;9.15;2.40;;;;;;;22.22;50.37;99825.88;4996276;28;20037;-76
2022/06/08 11:15:29;;;;;;;8.27;2.78;;;;;;;22.72;48.19;99821.38;5027396;28;20116;-74
2022/06/08 11:17:59;;;;;;;8.68;2.35;;;;;;;24.27;42.50;99817.41;5013528;28;20057;-74
2022/06/08 11:20:33;;;;;;;10.35;2.40;;;;;;;22.32;46.23;99842.31;5012805;28;20041;-76
2022/06/08 11:23:05;;;;;;;11.45;2.50;;;;;;;22.35;47.83;99836.25;5027930;28;20108;-76
2022/06/08 11:25:33;;;;;;;9.05;2.05;;;;;;;23.50;43.27;99836.41;5027527;28;20479;-74
2022/06/08 11:28:24;;;;;;;9.20;2.35;;;;;;;21.67;47.06;99839.28;4993268;28;20057;-75
2022/06/08 11:30:51;;;;;;;4.72;1.70;;;;;;;20.63;49.40;99844.59;5029998;28;20031;-74
2022/06/08 11:33:19;;;;;;;10.77;2.13;;;;;;;21.54;48.19;99841.69;4993800;28;20075;-74
2022/06/08 11:35:53;;;;;;;8.07;2.45;;;;;;;24.04;42.31;99838.22;5030110;28;20414;-75
2022/06/08 11:38:51;;;;;;;7.13;1.48;;;;;;;22.91;43.02;99843.50;5010301;28;20152;-74
2022/06/08 11:41:20;;;;;;;6.63;1.80;;;;;;;21.73;44.60;99856.53;5026278;28;20035;-74
2022/06/08 11:43:47;;;;;;;8.02;1.98;;;;;;;22.08;44.65;99857.63;5012289;28;20033;-75
2022/06/08 11:46:31;;;;;;;13.30;2.08;;;;;;;21.62;45.37;99854.84;4995410;28;20064;-74
2022/06/08 11:48:57;;;;;;;8.43;2.28;;;;;;;20.82;46.75;99852.34;5027601;28;20037;-74
2022/06/08 11:51:52;;;;;;;9.88;2.38;;;;;;;22.65;43.07;99866.63;5031412;28;20030;-75
2022/06/08 11:54:32;;;;;;;7.88;2.47;;;;;;;26.56;35.70;99855.81;5000756;28;20050;-76
2022/06/08 11:57:16;;;;;;;9.35;3.03;;;;;;;26.06;36.60;99872.91;5010655;28;20037;-75
2022/06/08 11:59:44;;;;;;;7.03;2.33;;;;;;;25.48;36.56;99875.16;4993725;28;20047;-77
2022/06/08 12:02:28;;;;;;;5.38;2.20;;;;;;;26.47;36.95;99865.91;4995882;28;20041;-77
2022/06/08 12:04:56;;;;;;;9.43;2.33;;;;;;;26.45;34.39;99887.44;5009797;28;20033;-77